Time;durP1;ratioP1;P1;durP2;ratioP2;P2;SDS_P1;SDS_P2;PMS_P1;PMS_P2;Temp;Humidity;BMP_temperature;BMP_pressure;BME280_temperature;BME280_humidity;BME280_pressure;Samples;Min_cycle;Max_cycle;Signal;HPM_P1;HPM_P2
2021/07/18 00:00:16;;;;;;;8.60;6.38;;;18.40;99.90;;;18.29;97.35;101919.28;4169493;28;20501;-75
2021/07/18 00:02:16;;;;;;;8.52;6.03;;;18.40;99.90;;;18.28;97.59;101914.13;4169444;28;20021;-75
2021/07/18 00:04:17;;;;;;;6.90;5.18;;;18.40;99.90;;;18.25;97.64;101915.28;4169265;28;20104;-76
2021/07/18 00:06:18;;;;;;;9.20;7.00;;;18.40;99.90;;;18.36;96.97;101914.91;4170625;28;20396;-75
2021/07/18 00:08:20;;;;;;;8.65;6.90;;;18.40;99.90;;;18.28;97.27;101908.78;4169317;28;20402;-75
2021/07/18 00:10:27;;;;;;;10.75;6.03;;;18.40;99.90;;;18.28;97.52;101922.13;4165329;28;20029;-76
2021/07/18 00:12:27;;;;;;;7.82;5.80;;;18.40;99.90;;;18.24;97.57;101917.16;4170354;28;20028;-76
2021/07/18 00:14:28;;;;;;;11.25;7.05;;;18.40;99.90;;;18.23;97.49;101914.63;4168943;28;20565;-76
2021/07/18 00:16:29;;;;;;;8.05;6.28;;;18.40;99.90;;;18.24;97.66;101919.00;4170270;28;20029;-75
2021/07/18 00:18:30;;;;;;;11.48;6.45;;;18.40;99.90;;;18.18;97.82;101909.84;4168986;28;20112;-76
2021/07/18 00:20:31;;;;;;;9.38;7.03;;;18.30;99.90;;;18.38;97.10;101920.88;4168797;28;20038;-76
2021/07/18 00:22:32;;;;;;;11.05;6.70;;;18.40;99.90;;;18.23;97.10;101904.78;4169040;28;20029;-76
2021/07/18 00:24:34;;;;;;;10.40;7.13;;;18.40;99.90;;;18.23;97.40;101920.81;4168620;28;20424;-75
2021/07/18 00:26:35;;;;;;;13.63;7.97;;;18.40;99.90;;;18.28;97.34;101914.13;4168990;28;20095;-76
2021/07/18 00:28:36;;;;;;;12.45;7.95;;;18.30;99.90;;;18.23;97.60;101917.31;4169979;28;20025;-76
2021/07/18 00:30:37;;;;;;;13.75;7.97;;;18.30;99.90;;;18.12;98.21;101923.06;4170114;28;20437;-75
2021/07/18 00:32:39;;;;;;;9.60;7.70;;;18.30;99.90;;;18.12;98.48;101917.72;4170138;28;20040;-76
2021/07/18 00:34:40;;;;;;;9.88;7.85;;;18.30;99.90;;;18.08;98.82;101921.75;4152605;28;20638;-76
2021/07/18 00:36:41;;;;;;;11.07;8.63;;;18.20;99.90;;;18.11;98.82;101916.06;4185273;28;20060;-76
2021/07/18 00:38:42;;;;;;;11.70;7.63;;;18.20;99.90;;;18.19;98.64;101926.69;4169947;28;20045;-75
2021/07/18 00:40:43;;;;;;;15.60;8.85;;;18.30;99.90;;;18.36;97.99;101925.59;4168289;28;20033;-76
2021/07/18 00:42:44;;;;;;;13.68;8.25;;;18.30;99.90;;;18.33;98.15;101919.75;4169005;28;20025;-76
2021/07/18 00:44:46;;;;;;;15.43;9.27;;;18.40;99.90;;;18.27;98.50;101937.34;4152407;28;20113;-75
2021/07/18 00:46:47;;;;;;;11.70;8.35;;;18.40;99.90;;;18.30;98.87;101930.81;4201804;28;20032;-76
2021/07/18 00:48:48;;;;;;;10.68;7.75;;;18.40;99.90;;;18.26;98.46;101914.28;4170166;28;20045;-76
2021/07/18 00:50:49;;;;;;;12.05;8.80;;;18.40;99.90;;;18.31;98.49;101911.09;4168395;28;20026;-76
2021/07/18 00:52:50;;;;;;;16.88;10.52;;;18.40;99.90;;;18.37;98.85;101927.22;4169698;28;20413;-76
2021/07/18 00:54:51;;;;;;;11.32;7.93;;;18.40;99.90;;;18.35;98.58;101923.91;4169603;28;20025;-76
2021/07/18 00:56:52;;;;;;;14.68;9.65;;;18.40;99.90;;;18.49;98.17;101923.16;4168487;28;20097;-75
2021/07/18 00:58:54;;;;;;;11.73;8.00;;;18.50;99.90;;;18.35;98.55;101918.56;4169724;28;20025;-75
2021/07/18 01:00:56;;;;;;;11.93;7.85;;;18.50;99.90;;;18.33;99.11;101920.59;4168364;28;20057;-76
2021/07/18 01:02:57;;;;;;;12.18;8.93;;;18.50;99.90;;;18.37;98.97;101926.41;4169878;28;20033;-76
2021/07/18 01:04:59;;;;;;;11.20;7.65;;;18.50;99.90;;;18.27;99.22;101910.63;4168281;28;20030;-75
2021/07/18 01:07:01;;;;;;;15.27;8.90;;;18.40;99.90;;;18.24;99.38;101910.97;4169590;28;20497;-75
2021/07/18 01:09:03;;;;;;;13.65;8.30;;;18.40;99.90;;;18.23;99.38;101926.16;4168091;28;20397;-76
2021/07/18 01:11:04;;;;;;;11.32;8.02;;;18.40;99.90;;;18.15;99.32;101917.38;4151597;28;20029;-76
2021/07/18 01:13:05;;;;;;;10.75;8.38;;;18.30;99.90;;;18.12;99.53;101913.22;4169551;28;20500;-76
2021/07/18 01:15:07;;;;;;;17.70;9.25;;;18.30;99.90;;;18.22;99.43;101923.66;4151778;28;20084;-76
2021/07/18 01:17:08;;;;;;;13.98;9.13;;;18.30;99.90;;;18.13;99.39;101912.19;4199081;28;20056;-76
2021/07/18 01:19:09;;;;;;;12.40;9.18;;;18.30;99.90;;;18.10;99.73;101907.22;4168308;28;20044;-76
2021/07/18 01:21:11;;;;;;;12.48;8.43;;;18.20;99.90;;;18.07;100.00;101915.56;4168308;28;20033;-76
2021/07/18 01:23:12;;;;;;;13.43;8.65;;;18.20;99.90;;;18.09;100.00;101916.25;4169554;28;20467;-76
2021/07/18 01:25:13;;;;;;;12.18;8.63;;;18.20;99.90;;;18.01;100.00;101902.13;4169070;28;20063;-75
2021/07/18 01:27:14;;;;;;;10.68;8.75;;;18.20;99.90;;;18.03;100.00;101905.44;4169501;28;20075;-75
2021/07/18 01:29:16;;;;;;;12.27;8.88;;;18.20;99.90;;;18.02;100.00;101903.75;4168135;28;20112;-75
2021/07/18 01:31:17;;;;;;;14.38;8.90;;;18.10;99.90;;;18.04;99.99;101901.78;4168064;28;20069;-76
2021/07/18 01:33:18;;;;;;;11.75;9.07;;;18.10;99.90;;;17.98;100.00;101895.25;4167938;28;20029;-75
2021/07/18 01:35:18;;;;;;;14.15;8.82;;;18.10;99.90;;;17.98;100.00;101889.94;4169350;28;20047;-76
2021/07/18 01:37:19;;;;;;;15.93;10.23;;;18.10;99.90;;;18.07;100.00;101893.41;4169269;28;20033;-76
2021/07/18 01:39:20;;;;;;;20.25;10.88;;;18.20;99.90;;;18.21;99.99;101900.66;4168971;28;20420;-75
2021/07/18 01:41:21;;;;;;;16.95;9.82;;;18.20;99.90;;;18.27;99.81;101902.59;4168930;28;20099;-76
2021/07/18 01:43:22;;;;;;;18.10;10.30;;;18.30;99.90;;;18.13;100.00;101896.16;4168068;28;20021;-76
2021/07/18 01:45:24;;;;;;;13.95;10.05;;;18.30;99.90;;;18.07;100.00;101904.88;4168000;28;20089;-75
2021/07/18 01:47:25;;;;;;;16.73;9.50;;;18.20;99.90;;;18.18;100.00;101898.34;4167873;28;20033;-75
2021/07/18 01:49:26;;;;;;;18.60;10.25;;;18.20;99.90;;;18.29;99.31;101892.56;4168903;28;20094;-75
2021/07/18 01:51:29;;;;;;;14.48;9.55;;;18.30;99.90;;;18.08;99.92;101892.38;4168557;28;20030;-76
2021/07/18 01:53:30;;;;;;;18.50;11.20;;;18.30;99.90;;;18.10;100.00;101887.69;4169118;28;20029;-76
2021/07/18 01:55:32;;;;;;;14.80;9.68;;;18.20;99.90;;;18.06;100.00;101879.22;4167540;28;20176;-76
2021/07/18 01:57:33;;;;;;;14.48;9.07;;;18.20;99.90;;;18.01;100.00;101888.78;4168820;28;20112;-75
2021/07/18 01:59:33;;;;;;;13.07;9.85;;;18.20;99.90;;;17.96;100.00;101897.28;4168989;28;20063;-75
2021/07/18 02:01:35;;;;;;;14.45;9.00;;;18.10;99.90;;;17.93;100.00;101892.31;4167571;28;20033;-75
2021/07/18 02:03:36;;;;;;;17.50;11.30;;;18.10;99.90;;;17.99;100.00;101875.59;4168845;28;20034;-76
2021/07/18 02:05:37;;;;;;;12.05;9.43;;;18.10;99.90;;;18.07;100.00;101880.06;4168763;28;20120;-75
2021/07/18 02:07:38;;;;;;;14.40;9.23;;;18.20;99.90;;;18.01;100.00;101886.09;4167610;28;20032;-76
2021/07/18 02:09:39;;;;;;;13.43;8.68;;;18.20;99.90;;;18.03;100.00;101882.25;4158544;28;20026;-76
2021/07/18 02:11:40;;;;;;;13.80;9.52;;;18.10;99.90;;;17.97;100.00;101885.63;4183829;28;20044;-76
2021/07/18 02:13:41;;;;;;;11.77;8.85;;;18.10;99.90;;;17.91;100.00;101878.31;4168578;28;20105;-76
2021/07/18 02:15:42;;;;;;;14.65;8.95;;;18.10;99.90;;;17.85;100.00;101880.84;4168725;28;20392;-75
2021/07/18 02:17:43;;;;;;;13.68;8.82;;;18.00;99.90;;;17.80;100.00;101876.00;4151061;28;20037;-76
2021/07/18 02:19:44;;;;;;;13.10;9.30;;;18.00;99.90;;;17.74;100.00;101879.38;4192893;28;20063;-76
2021/07/18 02:21:45;;;;;;;13.57;9.60;;;17.90;99.90;;;17.73;100.00;101882.25;4151149;28;20037;-76
2021/07/18 02:23:46;;;;;;;16.08;10.07;;;17.90;99.90;;;17.69;100.00;101877.25;4168361;28;20037;-76
2021/07/18 02:25:48;;;;;;;13.43;8.93;;;17.80;99.90;;;17.68;100.00;101878.25;4183486;28;20036;-76
2021/07/18 02:27:49;;;;;;;12.25;9.43;;;17.90;99.90;;;17.65;100.00;101873.25;4159692;28;20037;-76
2021/07/18 02:29:50;;;;;;;10.43;8.20;;;17.80;99.90;;;17.67;100.00;101865.94;4167293;28;20432;-75
2021/07/18 02:31:55;;;;;;;12.55;9.80;;;17.80;99.90;;;17.77;100.00;101873.69;4166976;28;20040;-76
2021/07/18 02:33:56;;;;;;;12.73;9.10;;;17.80;99.90;;;17.75;100.00;101872.22;4167334;28;20025;-76
2021/07/18 02:35:58;;;;;;;15.95;9.43;;;17.80;99.90;;;17.67;100.00;101875.78;4167259;28;20150;-76
2021/07/18 02:37:59;;;;;;;11.68;7.85;;;17.80;99.90;;;17.56;100.00;101868.16;4167180;28;20489;-76
2021/07/18 02:40:00;;;;;;;9.50;7.82;;;17.70;99.90;;;17.54;100.00;101879.00;4168240;28;20029;-76
2021/07/18 02:42:01;;;;;;;12.55;9.00;;;17.70;99.90;;;17.48;100.00;101860.97;4167193;28;20044;-76
2021/07/18 02:44:07;;;;;;;12.88;8.57;;;17.70;99.90;;;17.45;100.00;101866.66;4168380;28;20108;-76
2021/07/18 02:46:09;;;;;;;10.68;7.50;;;17.60;99.90;;;17.39;100.00;101866.53;4168518;28;20100;-76
2021/07/18 02:48:10;;;;;;;13.57;9.60;;;17.60;99.90;;;17.45;100.00;101871.16;4167152;28;20048;-76
2021/07/18 02:50:14;;;;;;;11.98;9.93;;;17.50;99.90;;;17.52;100.00;101875.66;4168400;28;20017;-76
2021/07/18 02:52:15;;;;;;;14.82;8.98;;;17.50;99.90;;;17.45;100.00;101871.16;4167351;28;20026;-76
2021/07/18 02:54:16;;;;;;;10.45;7.95;;;17.50;99.90;;;17.43;100.00;101871.34;4150649;28;20504;-76
2021/07/18 02:56:17;;;;;;;14.30;9.45;;;17.50;99.90;;;17.36;100.00;101882.88;4167210;28;20079;-75
2021/07/18 02:58:18;;;;;;;12.23;9.20;;;17.50;99.90;;;17.27;100.00;101870.56;4167092;28;20447;-76
2021/07/18 03:00:25;;;;;;;11.57;8.07;;;17.40;99.90;;;17.20;100.00;101872.28;4168302;28;20067;-76
2021/07/18 03:02:26;;;;;;;10.65;8.43;;;17.40;99.90;;;17.19;100.00;101868.78;4167091;28;20030;-76
2021/07/18 03:04:27;;;;;;;10.55;8.15;;;17.30;99.90;;;17.14;100.00;101857.78;4170206;28;20033;-76
2021/07/18 03:06:27;;;;;;;12.32;8.68;;;17.40;99.90;;;17.13;100.00;101864.97;4186927;28;20052;-76
2021/07/18 03:08:28;;;;;;;12.20;9.00;;;17.30;99.90;;;17.16;100.00;101869.13;4170165;28;20117;-76
2021/07/18 03:10:31;;;;;;;13.48;8.63;;;17.30;99.90;;;17.21;100.00;101864.09;4199643;28;20056;-76
2021/07/18 03:12:32;;;;;;;13.50;8.55;;;17.30;99.90;;;17.06;100.00;101865.78;4170421;28;20082;-76
2021/07/18 03:14:33;;;;;;;12.85;9.10;;;17.30;99.90;;;17.10;100.00;101875.13;4171502;28;20025;-75
2021/07/18 03:16:34;;;;;;;12.40;8.70;;;17.20;99.90;;;17.07;100.00;101864.81;4170335;28;20033;-76
2021/07/18 03:18:35;;;;;;;16.17;9.63;;;17.20;99.90;;;17.02;100.00;101859.16;4171283;28;20021;-76
2021/07/18 03:20:36;;;;;;;13.88;9.00;;;17.20;99.90;;;17.02;100.00;101861.81;4169880;28;20038;-76
2021/07/18 03:22:38;;;;;;;13.73;8.68;;;17.20;99.90;;;17.02;100.00;101864.50;4170247;28;20112;-76
2021/07/18 03:24:39;;;;;;;10.80;8.60;;;17.20;99.90;;;17.01;100.00;101862.81;4153326;28;20125;-76
2021/07/18 03:26:40;;;;;;;14.75;9.25;;;17.20;99.90;;;17.02;100.00;101870.63;4186552;28;20028;-75
2021/07/18 03:28:42;;;;;;;14.95;8.90;;;17.20;99.90;;;17.04;100.00;101868.66;4152763;28;20124;-75
2021/07/18 03:30:43;;;;;;;13.68;9.15;;;17.20;99.90;;;17.07;100.00;101862.13;4171192;28;20026;-76
2021/07/18 03:32:45;;;;;;;15.15;8.70;;;17.20;99.90;;;17.12;100.00;101876.63;4170106;28;20081;-76
2021/07/18 03:34:47;;;;;;;16.13;10.20;;;17.20;99.90;;;17.10;100.00;101867.97;4169889;28;20014;-75
2021/07/18 03:36:48;;;;;;;17.00;9.55;;;17.30;99.90;;;17.12;100.00;101860.63;4169796;28;20052;-76
2021/07/18 03:38:49;;;;;;;14.05;8.90;;;17.20;99.90;;;17.16;100.00;101871.78;4169810;28;20017;-76
2021/07/18 03:40:50;;;;;;;13.98;9.60;;;17.30;99.90;;;17.12;100.00;101875.78;4169327;28;20056;-76
2021/07/18 03:42:50;;;;;;;13.45;10.30;;;17.20;99.90;;;17.06;100.00;101868.47;4170003;28;20484;-75
2021/07/18 03:44:51;;;;;;;15.20;10.85;;;17.20;99.90;;;17.13;100.00;101878.28;4169648;28;20029;-76
2021/07/18 03:46:52;;;;;;;15.18;9.88;;;17.20;99.90;;;17.12;100.00;101871.28;4171068;28;20036;-75
2021/07/18 03:48:53;;;;;;;16.85;10.10;;;17.30;99.90;;;17.23;100.00;101872.78;4169524;28;20036;-76
2021/07/18 03:50:54;;;;;;;17.67;10.13;;;17.30;99.90;;;17.10;100.00;101873.31;4186087;28;20024;-75
2021/07/18 03:52:55;;;;;;;17.08;10.32;;;17.30;99.90;;;17.16;100.00;101879.78;4169569;28;20021;-75
2021/07/18 03:54:56;;;;;;;15.90;10.75;;;17.30;99.90;;;17.37;100.00;101877.38;4185957;28;20039;-75
2021/07/18 03:56:57;;;;;;;15.70;10.57;;;17.40;99.90;;;17.39;100.00;101877.19;4170882;28;20018;-75
2021/07/18 03:58:58;;;;;;;13.80;10.32;;;17.40;99.90;;;17.41;100.00;101880.53;4170749;28;20033;-75
2021/07/18 04:00:59;;;;;;;15.18;10.70;;;17.50;99.90;;;17.25;100.00;101873.41;4170384;28;20025;-76
2021/07/18 04:03:00;;;;;;;20.38;9.95;;;17.50;99.90;;;17.31;100.00;101878.06;4169547;28;20396;-75
2021/07/18 04:05:01;;;;;;;15.45;10.38;;;17.40;99.90;;;17.20;100.00;101866.94;4169479;28;20038;-75
2021/07/18 04:07:02;;;;;;;15.60;11.05;;;17.40;99.90;;;17.43;100.00;101868.69;4169328;28;20037;-75
2021/07/18 04:09:03;;;;;;;19.95;11.35;;;17.40;99.90;;;17.36;100.00;101878.38;4153987;28;20041;-75
2021/07/18 04:11:04;;;;;;;15.10;10.27;;;17.50;99.90;;;17.43;100.00;101873.19;4168951;28;20044;-75
2021/07/18 04:13:05;;;;;;;13.68;9.65;;;17.50;99.90;;;17.46;100.00;101879.00;4169212;28;20132;-75
2021/07/18 04:15:08;;;;;;;16.95;11.55;;;17.50;99.90;;;17.39;100.00;101878.03;4170159;28;20029;-75
2021/07/18 04:17:09;;;;;;;19.00;11.05;;;17.50;99.90;;;17.43;100.00;101874.03;4169144;28;20021;-75
2021/07/18 04:19:10;;;;;;;20.50;11.38;;;17.50;99.90;;;17.55;100.00;101866.50;4169262;28;20424;-75
2021/07/18 04:21:11;;;;;;;20.02;10.80;;;17.60;99.90;;;17.53;100.00;101869.28;4169072;28;20030;-76
2021/07/18 04:23:11;;;;;;;17.25;11.43;;;17.60;99.90;;;17.57;100.00;101875.97;4169088;28;20497;-75
2021/07/18 04:25:12;;;;;;;17.60;11.13;;;17.60;99.90;;;17.51;100.00;101873.97;4168492;28;20056;-76
2021/07/18 04:27:13;;;;;;;16.30;11.02;;;17.60;99.90;;;17.54;100.00;101880.78;4169106;28;20045;-75
2021/07/18 04:29:14;;;;;;;15.05;11.02;;;17.60;99.90;;;17.53;100.00;101871.16;4168838;28;20025;-75
2021/07/18 04:31:15;;;;;;;17.40;10.88;;;17.60;99.90;;;17.50;100.00;101877.63;4168683;28;20156;-75
2021/07/18 04:33:16;;;;;;;15.85;11.20;;;17.60;99.90;;;17.46;100.00;101887.00;4170032;28;20022;-75
2021/07/18 04:35:17;;;;;;;18.20;9.98;;;17.60;99.90;;;17.37;100.00;101880.03;4170183;28;20509;-75
2021/07/18 04:37:18;;;;;;;16.67;10.10;;;17.50;99.90;;;17.43;100.00;101887.34;4170301;28;20092;-75
2021/07/18 04:39:19;;;;;;;17.40;11.25;;;17.50;99.90;;;17.56;100.00;101889.50;4168610;28;20124;-75
2021/07/18 04:41:20;;;;;;;20.35;11.38;;;17.60;99.90;;;17.38;100.00;101892.34;4168608;28;20045;-76
2021/07/18 04:43:21;;;;;;;17.42;11.32;;;17.60;99.90;;;17.49;100.00;101888.50;4170011;28;20528;-75
2021/07/18 04:45:21;;;;;;;18.20;11.23;;;17.60;99.90;;;17.61;100.00;101898.66;4168828;28;20033;-76
2021/07/18 04:47:22;;;;;;;15.13;10.15;;;17.70;99.90;;;17.45;100.00;101890.69;4169967;28;20029;-76
2021/07/18 04:49:25;;;;;;;20.88;11.43;;;17.60;99.90;;;17.38;100.00;101880.88;4170010;28;20033;-75
2021/07/18 04:51:26;;;;;;;16.25;11.55;;;17.70;99.90;;;17.47;100.00;101902.00;4168659;28;20456;-75
2021/07/18 04:53:27;;;;;;;15.32;10.63;;;17.60;99.90;;;17.42;100.00;101895.50;4169911;28;20081;-75
2021/07/18 04:55:28;;;;;;;16.90;11.20;;;17.60;99.90;;;17.42;100.00;101893.69;4168425;28;20405;-76
2021/07/18 04:57:29;;;;;;;16.40;11.73;;;17.60;99.90;;;17.45;100.00;101898.69;4168691;28;20052;-75
2021/07/18 04:59:30;;;;;;;17.38;11.15;;;17.60;99.90;;;17.54;100.00;101903.00;4169833;28;20119;-76
2021/07/18 05:01:31;;;;;;;15.98;10.88;;;17.60;99.90;;;17.47;100.00;101894.00;4169822;28;20022;-75
2021/07/18 05:03:32;;;;;;;17.33;10.35;;;17.70;99.90;;;17.42;100.00;101896.34;4169746;28;20040;-75
2021/07/18 05:05:33;;;;;;;20.30;10.95;;;17.60;99.90;;;17.56;100.00;101898.31;4168488;28;20113;-75
2021/07/18 05:08:01;;;;;;;20.95;10.98;;;17.70;99.90;;;17.65;100.00;101889.28;4168246;28;20033;-75
2021/07/18 05:10:03;;;;;;;18.52;10.75;;;17.70;99.90;;;17.60;100.00;101896.97;4188981;28;20078;-75
2021/07/18 05:12:05;;;;;;;20.20;11.07;;;17.80;99.90;;;17.58;100.00;101896.34;4168259;28;20032;-76
2021/07/18 05:14:06;;;;;;;16.55;10.32;;;17.80;99.90;;;17.58;100.00;101892.81;4168413;28;20037;-75
2021/07/18 05:16:07;;;;;;;16.73;10.73;;;17.80;99.90;;;17.63;100.00;101898.47;4169611;28;20029;-76
2021/07/18 05:18:13;;;;;;;17.25;10.23;;;17.80;99.90;;;17.62;100.00;101905.63;4168152;28;20021;-75
2021/07/18 05:20:17;;;;;;;19.08;10.30;;;17.90;99.90;;;17.66;100.00;101901.63;4169418;28;20030;-75
2021/07/18 05:22:18;;;;;;;20.13;11.48;;;17.90;99.90;;;17.71;100.00;101893.09;4169528;28;20032;-75
2021/07/18 05:24:18;;;;;;;13.13;9.82;;;17.90;99.90;;;17.69;100.00;101906.63;4169153;28;20390;-75
2021/07/18 05:26:19;;;;;;;12.82;10.45;;;17.90;99.90;;;17.63;100.00;101896.63;4168545;28;20026;-75
2021/07/18 05:28:20;;;;;;;19.80;10.50;;;17.90;99.90;;;17.77;100.00;101902.25;4169157;28;20064;-75
2021/07/18 05:30:21;;;;;;;16.45;10.27;;;17.90;99.90;;;17.81;100.00;101907.06;4167858;28;20032;-75
2021/07/18 05:32:22;;;;;;;16.73;10.82;;;18.00;99.90;;;17.78;100.00;101891.38;4167954;28;20021;-75
2021/07/18 05:34:23;;;;;;;19.50;10.25;;;18.00;99.90;;;17.85;100.00;101903.03;4169151;28;20025;-75
2021/07/18 05:36:24;;;;;;;16.83;10.40;;;18.10;99.90;;;17.93;100.00;101907.47;4169066;28;20425;-75
2021/07/18 05:38:25;;;;;;;15.60;9.55;;;18.10;99.90;;;17.88;100.00;101907.19;4151526;28;20026;-75
2021/07/18 05:40:26;;;;;;;14.63;9.65;;;18.10;99.90;;;17.95;100.00;101902.81;4167710;28;20029;-75
2021/07/18 05:42:27;;;;;;;16.15;9.63;;;18.20;99.90;;;18.04;100.00;101915.13;4151366;28;20056;-75
2021/07/18 05:44:28;;;;;;;13.57;8.15;;;18.20;99.90;;;17.96;100.00;101896.47;4167815;28;20033;-75
2021/07/18 05:46:29;;;;;;;17.00;9.88;;;18.20;99.90;;;18.00;100.00;101913.78;4168088;28;20040;-75
2021/07/18 05:48:31;;;;;;;18.48;10.13;;;18.30;99.90;;;17.93;100.00;101911.00;4167473;28;20025;-75
2021/07/18 05:50:32;;;;;;;15.10;8.80;;;18.30;99.90;;;17.92;100.00;101898.63;4167698;28;20433;-75
2021/07/18 05:52:33;;;;;;;13.23;8.93;;;18.30;99.90;;;18.04;100.00;101912.44;4167596;28;20039;-76
2021/07/18 05:54:38;;;;;;;13.80;9.63;;;18.30;99.90;;;18.04;100.00;101912.44;4167375;28;20179;-75
2021/07/18 05:56:39;;;;;;;15.10;9.10;;;18.30;99.90;;;18.04;100.00;101920.47;4167821;28;20088;-75
2021/07/18 05:58:40;;;;;;;11.90;8.52;;;18.40;99.90;;;18.04;100.00;101915.94;4167512;28;20056;-75
2021/07/18 06:00:40;;;;;;;14.70;9.35;;;18.30;99.90;;;18.12;100.00;101923.91;4167607;28;20060;-75
2021/07/18 06:02:42;;;;;;;12.15;7.75;;;18.40;99.90;;;18.12;100.00;101917.72;4168817;28;20030;-75
2021/07/18 06:04:43;;;;;;;13.57;8.05;;;18.40;99.90;;;18.18;100.00;101917.03;4167940;28;20448;-75
2021/07/18 06:06:44;;;;;;;11.10;7.88;;;18.50;99.90;;;18.24;100.00;101924.31;4169033;28;20029;-75
2021/07/18 06:08:45;;;;;;;12.80;8.05;;;18.50;99.90;;;18.23;100.00;101923.50;4168602;28;20028;-76
2021/07/18 06:10:48;;;;;;;15.77;9.27;;;18.50;99.90;;;18.28;100.00;101916.81;4168287;28;20065;-75
2021/07/18 06:12:48;;;;;;;14.35;8.00;;;18.60;99.90;;;18.44;99.87;101917.50;4168759;28;20021;-76
2021/07/18 06:14:50;;;;;;;13.15;7.70;;;18.70;99.90;;;18.52;99.66;101924.63;4168925;28;20511;-75
2021/07/18 06:16:51;;;;;;;12.13;7.78;;;18.70;99.90;;;18.52;99.21;101919.28;4167591;28;20022;-75
2021/07/18 06:18:53;;;;;;;11.20;6.28;;;18.80;99.90;;;18.45;100.00;101924.50;4167246;28;20084;-75
2021/07/18 06:20:54;;;;;;;13.75;8.18;;;18.80;99.90;;;18.53;99.38;101924.47;4168557;28;20107;-76
2021/07/18 06:22:55;;;;;;;11.95;7.88;;;18.90;99.90;;;18.57;99.64;101919.59;4167115;28;20037;-75
2021/07/18 06:24:55;;;;;;;11.50;7.20;;;18.90;99.90;;;18.72;98.59;101924.00;4166949;28;20030;-76
2021/07/18 06:26:56;;;;;;;13.27;8.05;;;19.00;99.90;;;18.74;98.50;101924.63;4167080;28;20033;-75
2021/07/18 06:29:00;;;;;;;13.23;7.57;;;19.10;99.90;;;18.75;98.66;101928.16;4167391;28;20025;-75
2021/07/18 06:31:01;;;;;;;13.25;8.20;;;19.10;99.90;;;18.75;98.83;101918.28;4167382;28;20428;-75
2021/07/18 06:33:02;;;;;;;13.38;7.35;;;19.20;99.90;;;18.82;98.37;101921.03;4167305;28;20026;-75
2021/07/18 06:35:04;;;;;;;10.25;7.30;;;19.30;99.90;;;18.92;98.04;101926.97;4150712;28;20032;-75
2021/07/18 06:37:05;;;;;;;12.20;6.43;;;19.30;99.90;;;18.92;98.59;101929.66;4167099;28;20092;-75
2021/07/18 06:39:06;;;;;;;12.15;7.25;;;19.30;99.90;;;18.92;98.50;101916.28;4166880;28;20033;-75
2021/07/18 06:41:07;;;;;;;11.43;7.72;;;19.40;99.90;;;18.94;97.86;101916.09;4166955;28;20076;-76
2021/07/18 06:43:08;;;;;;;14.77;8.20;;;19.40;99.90;;;18.92;98.07;101926.13;4168254;28;20033;-76
2021/07/18 06:45:10;;;;;;;11.50;6.57;;;19.50;99.90;;;19.07;98.09;101927.00;4167324;28;20029;-76
2021/07/18 06:47:11;;;;;;;10.15;7.32;;;19.50;99.90;;;19.08;97.46;101908.09;4150748;28;20030;-76
2021/07/18 06:49:11;;;;;;;11.70;6.57;;;19.60;99.90;;;19.12;97.82;101913.88;4167507;28;20481;-76
2021/07/18 06:51:12;;;;;;;11.38;6.28;;;19.60;99.90;;;19.12;98.12;101919.25;4167906;28;20030;-76
2021/07/18 06:53:13;;;;;;;9.52;6.93;;;19.60;99.90;;;19.05;98.14;101904.97;4168423;28;20025;-77
2021/07/18 06:55:15;;;;;;;12.77;7.47;;;19.70;99.90;;;19.22;97.72;101917.13;4167754;28;20037;-76
2021/07/18 06:57:16;;;;;;;12.75;6.45;;;19.70;99.90;;;19.26;97.84;101913.91;4167127;28;20512;-76
2021/07/18 06:59:16;;;;;;;12.70;6.70;;;19.80;99.90;;;19.27;97.25;101920.09;4166978;28;20034;-76
2021/07/18 07:01:17;;;;;;;15.25;6.78;;;19.80;99.90;;;19.34;97.25;101923.69;4166906;28;20068;-76
2021/07/18 07:03:18;;;;;;;12.98;7.03;;;19.90;99.90;;;19.37;97.48;101917.97;4168442;28;20036;-76
2021/07/18 07:05:19;;;;;;;10.60;7.68;;;19.90;99.90;;;19.44;97.12;101924.28;4167755;28;20127;-76
2021/07/18 07:07:20;;;;;;;11.32;6.18;;;20.00;99.90;;;19.45;96.77;101906.38;4170520;28;20030;-76
2021/07/18 07:09:21;;;;;;;9.25;5.53;;;20.00;99.90;;;19.50;97.36;101926.22;4167904;28;20451;-76
2021/07/18 07:11:22;;;;;;;13.40;6.85;;;20.00;99.90;;;19.59;96.61;101927.75;4162435;28;20044;-76
2021/07/18 07:13:23;;;;;;;12.35;5.97;;;20.10;99.90;;;19.52;96.37;101928.69;4167532;28;20021;-76
2021/07/18 07:15:24;;;;;;;9.63;5.78;;;20.20;99.90;;;19.66;96.21;101931.38;4167411;28;20101;-75
2021/07/18 07:17:25;;;;;;;10.07;6.47;;;20.20;99.90;;;19.67;95.89;101924.16;4167015;28;20025;-75
2021/07/18 07:19:26;;;;;;;9.95;6.40;;;20.30;99.90;;;19.76;95.51;101933.75;4177579;28;20022;-74
2021/07/18 07:21:27;;;;;;;8.80;5.53;;;20.40;99.90;;;19.81;94.99;101932.19;4166023;28;20034;-75
2021/07/18 07:23:28;;;;;;;8.38;5.32;;;20.40;99.90;;;19.89;94.72;101934.72;4167347;28;20025;-75
2021/07/18 07:25:29;;;;;;;10.48;5.22;;;20.40;99.90;;;20.00;95.02;101933.44;4164674;28;20038;-75
2021/07/18 07:27:30;;;;;;;13.50;5.45;;;20.50;99.90;;;20.05;94.92;101933.69;4165391;28;20032;-75
2021/07/18 07:29:31;;;;;;;10.25;5.63;;;20.60;99.90;;;20.12;94.69;101931.94;4165322;28;20069;-74
2021/07/18 07:31:32;;;;;;;12.18;6.50;;;20.60;99.90;;;20.14;94.32;101937.06;4165016;28;20408;-75
2021/07/18 07:33:33;;;;;;;8.93;4.88;;;20.70;99.90;;;20.22;94.55;101936.97;4182239;28;20029;-75
2021/07/18 07:35:34;;;;;;;9.90;5.25;;;20.80;99.90;;;20.37;94.24;101940.44;4156951;28;20105;-74
2021/07/18 07:37:35;;;;;;;8.68;4.90;;;20.90;99.90;;;20.43;93.73;101928.94;4167308;28;20072;-74
2021/07/18 07:39:37;;;;;;;7.38;4.78;;;21.00;99.90;;;20.43;93.60;101926.28;4165998;28;20025;-75
2021/07/18 07:41:39;;;;;;;12.20;5.43;;;21.00;99.90;;;20.55;93.15;101927.41;4166976;28;20050;-74
2021/07/18 07:43:40;;;;;;;9.73;5.40;;;21.10;99.90;;;20.53;92.85;101926.78;4149623;28;20037;-75
2021/07/18 07:45:41;;;;;;;7.10;4.47;;;21.20;99.90;;;20.65;92.46;101932.47;4159926;28;20400;-74
2021/07/18 07:47:42;;;;;;;6.78;5.22;;;21.20;99.90;;;20.69;92.19;101923.84;4166132;28;20040;-75
2021/07/18 07:49:44;;;;;;;7.65;4.60;;;21.30;99.90;;;20.78;90.68;101921.88;4167949;28;20040;-75
2021/07/18 07:51:45;;;;;;;8.18;5.00;;;21.40;99.90;;;20.80;90.44;101926.00;4152220;28;20034;-75
2021/07/18 07:53:47;;;;;;;8.43;4.43;;;21.50;99.90;;;20.92;90.50;101919.09;4169108;28;20036;-75
2021/07/18 07:55:48;;;;;;;10.88;4.82;;;21.60;99.90;;;21.12;90.86;101931.81;4168749;28;20025;-75
2021/07/18 07:57:48;;;;;;;8.05;4.90;;;21.70;99.90;;;21.24;90.29;101924.88;4169110;28;20503;-75
2021/07/18 07:59:50;;;;;;;9.02;5.50;;;21.80;99.90;;;21.22;89.49;101921.59;4169066;28;20036;-75
2021/07/18 08:01:50;;;;;;;7.20;3.88;;;21.90;99.90;;;21.35;89.30;101929.72;4170105;28;20041;-75
2021/07/18 08:03:52;;;;;;;8.27;4.68;;;22.00;99.90;;;21.46;89.28;101921.09;4170130;28;20033;-75
2021/07/18 08:05:53;;;;;;;8.07;4.03;;;22.10;99.90;;;21.56;87.97;101924.25;4168802;28;20527;-75
2021/07/18 08:07:54;;;;;;;13.82;4.10;;;22.20;99.90;;;21.62;86.02;101925.31;4169091;28;20100;-75
2021/07/18 08:09:55;;;;;;;8.43;4.72;;;22.30;99.90;;;21.75;86.22;101928.03;4193818;28;20104;-75
2021/07/18 08:11:56;;;;;;;11.25;4.20;;;22.40;99.90;;;21.79;85.18;101922.09;4168536;28;20036;-75
2021/07/18 08:13:57;;;;;;;6.57;4.30;;;22.50;99.90;;;21.94;85.97;101920.09;4169094;28;20581;-75
2021/07/18 08:15:58;;;;;;;7.70;3.70;;;22.60;99.90;;;21.90;84.47;101926.06;4170142;28;20022;-75